createdAt,value
2022-08-26T00:01:53.695Z,21.68
2022-08-26T00:04:22.211Z,21.67
2022-08-26T00:06:51.516Z,21.60
2022-08-26T00:09:19.370Z,21.62
2022-08-26T00:11:47.391Z,21.62
2022-08-26T00:14:16.553Z,21.60
2022-08-26T00:16:49.000Z,21.57
2022-08-26T00:19:18.258Z,21.51
2022-08-26T00:21:46.357Z,21.46
2022-08-26T00:24:17.907Z,21.38
2022-08-26T00:26:45.936Z,21.36
2022-08-26T00:29:14.003Z,21.29
2022-08-26T00:31:45.140Z,21.24
2022-08-26T00:34:14.142Z,21.28
2022-08-26T00:36:43.158Z,21.34
2022-08-26T00:39:11.197Z,21.23
2022-08-26T00:41:41.691Z,21.33
2022-08-26T00:44:10.386Z,21.42
2022-08-26T00:46:46.622Z,21.45
2022-08-26T00:49:18.301Z,21.49
2022-08-26T00:51:50.710Z,21.60
2022-08-26T00:54:21.526Z,21.64
2022-08-26T00:56:55.646Z,21.62
2022-08-26T00:59:24.876Z,21.74
2022-08-26T01:01:53.287Z,21.75
2022-08-26T01:04:23.619Z,21.72
2022-08-26T01:06:55.081Z,21.73
2022-08-26T01:09:23.819Z,21.68
2022-08-26T01:11:58.097Z,21.59
2022-08-26T01:14:29.913Z,21.53
2022-08-26T01:16:57.720Z,21.38
2022-08-26T01:19:32.731Z,21.31
2022-08-26T01:22:02.942Z,21.28
2022-08-26T01:24:32.664Z,21.30
2022-08-26T01:27:05.076Z,21.32
2022-08-26T01:29:35.478Z,21.31
2022-08-26T01:32:05.278Z,21.21
2022-08-26T01:34:36.127Z,21.25
2022-08-26T01:37:07.416Z,21.16
2022-08-26T01:39:37.985Z,21.06
2022-08-26T01:42:11.537Z,20.98
2022-08-26T01:44:44.940Z,20.95
2022-08-26T01:47:16.052Z,20.83
2022-08-26T01:49:49.363Z,20.74
2022-08-26T01:52:27.611Z,20.64
2022-08-26T01:55:00.597Z,20.61
2022-08-26T01:57:29.499Z,20.66
2022-08-26T02:00:00.513Z,20.73
2022-08-26T02:02:28.921Z,20.64
2022-08-26T02:05:00.944Z,20.60
2022-08-26T02:07:29.743Z,20.66
2022-08-26T02:09:58.954Z,20.67
2022-08-26T02:12:28.362Z,20.64
2022-08-26T02:14:59.575Z,20.58
2022-08-26T02:17:38.284Z,20.62
2022-08-26T02:20:13.106Z,20.52
2022-08-26T02:22:45.096Z,20.48
2022-08-26T02:25:21.525Z,20.57
2022-08-26T02:27:51.044Z,20.70
2022-08-26T02:30:21.854Z,20.50
2022-08-26T02:32:51.756Z,20.37
2022-08-26T02:35:21.463Z,20.36
2022-08-26T02:37:49.628Z,20.42
2022-08-26T02:40:21.448Z,20.55
2022-08-26T02:42:49.867Z,20.38
2022-08-26T02:45:23.121Z,20.40
2022-08-26T02:47:51.817Z,20.37
2022-08-26T02:50:20.991Z,20.39
2022-08-26T02:52:49.333Z,20.33
2022-08-26T02:55:19.550Z,20.21
2022-08-26T02:57:47.270Z,20.21
2022-08-26T03:00:16.172Z,20.33
2022-08-26T03:02:43.893Z,20.27
2022-08-26T03:05:12.009Z,20.27
2022-08-26T03:07:40.311Z,20.30
2022-08-26T03:10:09.217Z,20.20
2022-08-26T03:12:38.326Z,20.25
2022-08-26T03:15:16.487Z,20.17
2022-08-26T03:17:47.407Z,20.05
2022-08-26T03:20:15.759Z,20.02
2022-08-26T03:22:45.298Z,20.06
2022-08-26T03:25:14.981Z,20.11
2022-08-26T03:27:44.499Z,20.11
2022-08-26T03:30:30.874Z,19.99
2022-08-26T03:32:58.807Z,19.93
2022-08-26T03:35:27.025Z,19.88
2022-08-26T03:37:55.439Z,19.97
2022-08-26T03:40:23.863Z,19.90
2022-08-26T03:42:58.561Z,19.79
2022-08-26T03:45:28.095Z,19.67
2022-08-26T03:47:56.011Z,19.59
2022-08-26T03:50:27.093Z,19.60
2022-08-26T03:52:56.006Z,19.62
2022-08-26T03:55:26.961Z,19.70
2022-08-26T03:57:55.401Z,19.64
2022-08-26T04:00:24.934Z,19.67
2022-08-26T04:02:53.721Z,19.63
2022-08-26T04:05:23.420Z,19.68
2022-08-26T04:07:51.267Z,19.62
2022-08-26T04:10:22.090Z,19.52
2022-08-26T04:12:56.617Z,19.53
2022-08-26T04:15:29.065Z,19.45
2022-08-26T04:17:57.493Z,19.52
2022-08-26T04:20:25.725Z,19.55
2022-08-26T04:22:53.833Z,19.59
2022-08-26T04:25:22.445Z,19.69
2022-08-26T04:27:51.967Z,19.71
2022-08-26T04:30:20.079Z,19.68
2022-08-26T04:32:50.444Z,19.76
2022-08-26T04:35:20.866Z,19.93
2022-08-26T04:37:53.334Z,19.93
2022-08-26T04:40:21.570Z,19.98
2022-08-26T04:42:50.344Z,20.06
2022-08-26T04:45:18.853Z,20.04
2022-08-26T04:47:56.313Z,20.09
2022-08-26T04:50:25.812Z,20.26
2022-08-26T04:52:55.302Z,20.31
2022-08-26T04:55:37.335Z,20.37
2022-08-26T04:58:10.245Z,20.47
2022-08-26T05:00:39.203Z,20.56
2022-08-26T05:03:10.253Z,20.57
2022-08-26T05:05:40.152Z,20.56
2022-08-26T05:08:08.337Z,20.61
2022-08-26T05:10:40.942Z,20.66
2022-08-26T05:13:11.188Z,20.73
2022-08-26T05:15:40.550Z,20.77
2022-08-26T05:18:10.478Z,20.81
2022-08-26T05:20:41.586Z,20.79
2022-08-26T05:23:09.978Z,20.80
2022-08-26T05:25:40.415Z,20.89
2022-08-26T05:28:08.320Z,20.88
2022-08-26T05:30:36.831Z,20.93
2022-08-26T05:33:15.043Z,20.99
2022-08-26T05:35:43.359Z,21.19
2022-08-26T05:39:10.809Z,21.30
2022-08-26T05:41:42.084Z,21.41
2022-08-26T05:44:20.998Z,21.53
2022-08-26T05:46:51.232Z,21.58
2022-08-26T05:49:51.864Z,21.62
2022-08-26T05:52:21.415Z,21.68
2022-08-26T05:54:53.471Z,21.76
2022-08-26T05:57:21.097Z,21.79
2022-08-26T05:59:51.145Z,21.88
2022-08-26T06:02:18.859Z,21.98
2022-08-26T06:04:47.390Z,21.94
2022-08-26T06:07:16.895Z,22.00
2022-08-26T06:09:47.514Z,22.10
2022-08-26T06:12:15.805Z,22.22
2022-08-26T06:14:46.353Z,22.21
2022-08-26T06:17:16.659Z,22.24
2022-08-26T06:19:45.464Z,22.26
2022-08-26T06:22:27.164Z,22.34
2022-08-26T06:25:13.577Z,22.37
2022-08-26T06:27:41.390Z,22.34
2022-08-26T06:30:10.400Z,22.34
2022-08-26T06:32:38.007Z,22.48
2022-08-26T06:35:06.218Z,22.54
2022-08-26T06:37:39.643Z,22.58
2022-08-26T06:40:11.525Z,22.66
2022-08-26T06:42:39.190Z,22.68
2022-08-26T06:45:07.160Z,22.80
2022-08-26T06:47:36.274Z,22.96
2022-08-26T06:50:03.881Z,23.06
2022-08-26T06:52:31.492Z,23.03
2022-08-26T06:54:59.007Z,23.02
2022-08-26T06:57:28.522Z,22.97
2022-08-26T06:59:59.226Z,23.05
2022-08-26T07:02:28.602Z,23.24
2022-08-26T07:04:56.799Z,23.32
2022-08-26T07:07:24.461Z,23.37
2022-08-26T07:09:52.733Z,23.40
2022-08-26T07:12:20.406Z,23.43
2022-08-26T07:14:49.505Z,23.52
2022-08-26T07:17:17.329Z,23.66
2022-08-26T07:19:48.615Z,23.78
2022-08-26T07:22:17.328Z,23.92
2022-08-26T07:24:44.964Z,23.97
2022-08-26T07:27:14.259Z,23.99
2022-08-26T07:29:43.462Z,24.02
2022-08-26T07:32:13.267Z,24.01
2022-08-26T07:34:41.814Z,24.07
2022-08-26T07:37:10.207Z,24.13
2022-08-26T07:39:37.900Z,24.10
2022-08-26T07:42:08.553Z,24.18
2022-08-26T07:44:36.320Z,24.16
2022-08-26T07:47:03.899Z,24.17
2022-08-26T07:49:48.349Z,24.11
2022-08-26T07:52:25.334Z,24.31
2022-08-26T07:54:54.165Z,24.47
2022-08-26T07:57:21.976Z,24.72
2022-08-26T07:59:52.235Z,24.86
2022-08-26T08:02:22.799Z,24.89
2022-08-26T08:04:52.283Z,25.01
2022-08-26T08:07:20.173Z,24.95
2022-08-26T08:09:49.416Z,24.94
2022-08-26T08:12:17.043Z,24.91
2022-08-26T08:14:46.856Z,24.74
2022-08-26T08:17:15.999Z,24.66
2022-08-26T08:19:43.652Z,24.65
2022-08-26T08:22:17.937Z,24.60
2022-08-26T08:24:49.944Z,24.53
2022-08-26T08:27:23.793Z,24.55
2022-08-26T08:29:54.149Z,24.59
2022-08-26T08:32:21.934Z,24.48
2022-08-26T08:34:49.413Z,24.48
2022-08-26T08:37:18.228Z,24.46
2022-08-26T08:39:45.721Z,24.43
2022-08-26T08:42:27.482Z,24.30
2022-08-26T08:44:58.806Z,24.18
2022-08-26T08:47:30.601Z,24.11
2022-08-26T08:50:01.109Z,24.04
2022-08-26T08:52:32.140Z,23.98
2022-08-26T08:54:59.734Z,23.95
2022-08-26T08:57:32.041Z,24.03
2022-08-26T09:00:04.381Z,24.14
2022-08-26T09:02:35.502Z,24.25
2022-08-26T09:05:10.183Z,24.41
2022-08-26T09:07:47.149Z,24.57
2022-08-26T09:10:22.299Z,24.55
2022-08-26T09:12:51.609Z,24.57
2022-08-26T09:15:21.524Z,24.74
2022-08-26T09:17:54.531Z,24.73
2022-08-26T09:20:30.643Z,24.76
2022-08-26T09:22:59.553Z,24.84
2022-08-26T09:25:27.272Z,24.96
2022-08-26T09:27:55.984Z,25.12
2022-08-26T09:30:26.356Z,25.21
2022-08-26T09:32:59.282Z,25.13
2022-08-26T09:35:28.816Z,24.99
2022-08-26T09:37:56.424Z,24.94
2022-08-26T09:40:27.914Z,24.91
2022-08-26T09:43:07.843Z,25.07
2022-08-26T09:45:35.801Z,25.31
2022-08-26T09:48:03.669Z,25.65
2022-08-26T09:50:33.774Z,25.94
2022-08-26T09:53:09.962Z,26.44
2022-08-26T09:55:42.999Z,26.97
2022-08-26T09:58:13.808Z,27.42
2022-08-26T10:00:42.171Z,27.84
2022-08-26T10:03:12.146Z,28.08
2022-08-26T10:05:45.743Z,28.10
2022-08-26T10:08:18.559Z,28.05
2022-08-26T10:10:48.909Z,27.54
2022-08-26T10:13:24.182Z,27.34
2022-08-26T10:15:56.086Z,27.24
2022-08-26T10:18:26.669Z,27.19
2022-08-26T10:21:02.619Z,27.12
2022-08-26T10:23:34.025Z,27.11
2022-08-26T10:26:05.560Z,26.88
2022-08-26T10:28:38.270Z,26.71
2022-08-26T10:31:10.203Z,26.55
2022-08-26T10:33:39.265Z,26.40
2022-08-26T10:36:32.270Z,26.48
2022-08-26T10:39:04.687Z,26.22
2022-08-26T10:41:37.287Z,26.04
2022-08-26T10:44:07.499Z,26.22
2022-08-26T10:46:39.622Z,26.29
2022-08-26T10:49:11.142Z,26.44
2022-08-26T10:51:42.248Z,26.43
2022-08-26T10:54:17.757Z,26.44
2022-08-26T10:56:49.465Z,26.44
2022-08-26T10:59:22.760Z,26.34
2022-08-26T11:01:54.894Z,26.31
2022-08-26T11:04:37.404Z,26.32
2022-08-26T11:07:23.911Z,26.47
2022-08-26T11:09:52.126Z,26.66
2022-08-26T11:12:38.494Z,26.82
2022-08-26T11:15:09.246Z,26.83
2022-08-26T11:17:56.858Z,26.94
2022-08-26T11:20:34.888Z,26.93
2022-08-26T11:23:17.282Z,26.76
2022-08-26T11:26:00.182Z,26.67
2022-08-26T11:28:33.518Z,26.80
2022-08-26T11:31:02.677Z,26.86
2022-08-26T11:33:59.468Z,26.82
2022-08-26T11:36:36.139Z,26.91
2022-08-26T11:39:05.151Z,27.17
2022-08-26T11:41:34.463Z,27.45
2022-08-26T11:44:05.484Z,27.66
2022-08-26T11:46:37.583Z,27.80
2022-08-26T11:49:06.429Z,28.35
2022-08-26T11:51:38.192Z,28.73
2022-08-26T11:54:12.314Z,28.68
2022-08-26T11:56:41.936Z,28.21
2022-08-26T12:02:13.853Z,27.56
2022-08-26T12:04:44.120Z,27.37
2022-08-26T12:07:12.738Z,27.10
2022-08-26T12:09:51.912Z,26.93
2022-08-26T12:12:24.303Z,26.82
2022-08-26T12:15:06.214Z,26.70
2022-08-26T12:17:35.154Z,27.10
2022-08-26T12:20:06.730Z,27.50
2022-08-26T12:22:35.942Z,27.58
2022-08-26T12:25:05.058Z,27.46
2022-08-26T12:27:33.565Z,27.17
2022-08-26T12:30:03.591Z,27.09
2022-08-26T12:32:36.286Z,27.26
2022-08-26T12:37:39.709Z,27.29
2022-08-26T12:40:28.874Z,27.36
2022-08-26T12:42:57.229Z,27.44
2022-08-26T12:45:28.494Z,27.75
2022-08-26T12:47:59.687Z,27.82
2022-08-26T12:50:29.542Z,27.70
2022-08-26T12:52:59.781Z,27.69
2022-08-26T12:55:35.509Z,27.60
2022-08-26T12:58:13.617Z,27.76
2022-08-26T13:00:42.068Z,28.14
2022-08-26T13:03:24.522Z,28.21
2022-08-26T13:05:54.133Z,27.99
2022-08-26T13:08:26.544Z,27.61
2022-08-26T13:11:03.053Z,27.24
2022-08-26T13:13:30.665Z,27.20
2022-08-26T13:15:58.911Z,27.23
2022-08-26T13:18:26.594Z,27.23
2022-08-26T13:20:55.509Z,27.12
2022-08-26T13:23:24.118Z,26.95
2022-08-26T13:25:52.623Z,26.75
2022-08-26T13:28:20.151Z,26.34
2022-08-26T13:30:49.649Z,26.10
2022-08-26T13:33:18.462Z,25.91
2022-08-26T13:35:46.172Z,25.79
2022-08-26T13:38:18.608Z,25.74
2022-08-26T13:41:02.704Z,25.74
2022-08-26T13:43:30.504Z,25.75
2022-08-26T13:45:58.010Z,25.84
2022-08-26T13:48:26.220Z,25.97
2022-08-26T13:50:53.834Z,26.13
2022-08-26T13:53:22.842Z,26.21
2022-08-26T13:55:50.472Z,26.33
2022-08-26T13:58:18.267Z,26.38
2022-08-26T14:00:45.925Z,26.44
2022-08-26T14:03:14.579Z,26.58
2022-08-26T14:05:42.108Z,26.78
2022-08-26T14:08:10.818Z,26.84
2022-08-26T14:10:39.803Z,26.64
2022-08-26T14:13:07.596Z,26.59
2022-08-26T14:15:35.852Z,26.54
2022-08-26T14:18:04.349Z,26.48
2022-08-26T14:20:34.763Z,26.61
2022-08-26T14:23:13.738Z,26.79
2022-08-26T14:25:43.396Z,26.95
2022-08-26T14:28:11.992Z,26.88
2022-08-26T14:30:40.929Z,26.78
2022-08-26T14:33:11.416Z,26.79
2022-08-26T14:35:41.427Z,26.65
2022-08-26T14:38:16.544Z,26.46
2022-08-26T14:40:46.066Z,26.33
2022-08-26T14:43:15.180Z,26.11
2022-08-26T14:45:43.884Z,25.88
2022-08-26T14:48:11.588Z,25.69
2022-08-26T14:50:39.127Z,25.61
2022-08-26T14:53:24.006Z,25.59
2022-08-26T14:55:52.881Z,25.55
2022-08-26T14:58:20.430Z,25.50
2022-08-26T15:00:50.753Z,25.42
2022-08-26T15:05:50.860Z,25.46
2022-08-26T15:08:18.512Z,25.36
2022-08-26T15:10:45.980Z,25.28
2022-08-26T15:13:14.913Z,25.22
2022-08-26T15:15:42.536Z,25.13
2022-08-26T15:18:10.352Z,25.01
2022-08-26T15:20:38.242Z,25.02
2022-08-26T15:23:07.353Z,24.97
2022-08-26T15:25:35.247Z,24.96
2022-08-26T15:28:02.965Z,25.16
2022-08-26T15:30:32.006Z,25.28
2022-08-26T15:32:59.548Z,25.26
2022-08-26T15:35:27.190Z,25.25
2022-08-26T15:37:54.802Z,25.20
2022-08-26T15:40:22.427Z,24.97
2022-08-26T15:42:57.487Z,24.87
2022-08-26T15:45:26.118Z,24.79
2022-08-26T15:48:11.147Z,24.74
2022-08-26T15:50:49.458Z,24.82
2022-08-26T15:53:17.360Z,24.77
2022-08-26T15:55:44.989Z,24.63
2022-08-26T15:58:12.489Z,24.43
2022-08-26T16:00:41.001Z,24.29
2022-08-26T16:03:09.912Z,24.14
2022-08-26T16:05:37.592Z,23.93
2022-08-26T16:08:06.282Z,23.74
2022-08-26T16:10:34.109Z,23.51
2022-08-26T16:13:01.890Z,23.42
2022-08-26T16:15:29.394Z,23.30
2022-08-26T16:17:59.713Z,23.20
2022-08-26T16:20:28.688Z,23.15
2022-08-26T16:22:56.297Z,23.10
2022-08-26T16:25:24.027Z,23.05
2022-08-26T16:27:52.384Z,23.06
2022-08-26T16:30:20.633Z,23.10
2022-08-26T16:32:48.654Z,23.12
2022-08-26T16:35:16.772Z,23.03
2022-08-26T16:37:45.780Z,23.04
2022-08-26T16:40:13.429Z,22.92
2022-08-26T16:42:40.986Z,22.83
2022-08-26T16:45:09.001Z,22.76
2022-08-26T16:47:36.607Z,22.78
2022-08-26T16:50:04.318Z,22.76
2022-08-26T16:52:31.918Z,22.68
2022-08-26T16:55:01.641Z,22.72
2022-08-26T16:57:29.250Z,22.65
2022-08-26T16:59:56.861Z,22.54
2022-08-26T17:02:24.490Z,22.48
2022-08-26T17:04:52.965Z,22.50
2022-08-26T17:07:20.534Z,22.45
2022-08-26T17:09:48.205Z,22.40
2022-08-26T17:12:17.318Z,22.37
2022-08-26T17:14:45.802Z,22.33
2022-08-26T17:17:13.446Z,22.34
2022-08-26T17:19:47.109Z,22.34
2022-08-26T17:22:15.362Z,22.31
2022-08-26T17:24:43.072Z,22.29
2022-08-26T17:27:10.780Z,22.28
2022-08-26T17:29:39.776Z,22.23
2022-08-26T17:32:07.408Z,22.28
2022-08-26T17:34:35.014Z,22.20
2022-08-26T17:37:02.724Z,22.17
2022-08-26T17:39:30.337Z,22.09
2022-08-26T17:41:57.945Z,22.08
2022-08-26T17:44:25.478Z,22.07
2022-08-26T17:46:54.735Z,22.01
2022-08-26T17:49:23.279Z,22.09
2022-08-26T17:51:50.991Z,22.05
2022-08-26T17:54:18.519Z,22.04
2022-08-26T17:56:46.111Z,21.98
2022-08-26T17:59:13.626Z,21.93
2022-08-26T18:01:41.220Z,21.89
2022-08-26T18:04:10.326Z,21.91
2022-08-26T18:06:39.239Z,21.91
2022-08-26T18:09:06.868Z,21.83
2022-08-26T18:11:34.455Z,21.92
2022-08-26T18:14:02.103Z,21.87
2022-08-26T18:16:34.107Z,21.88
2022-08-26T18:19:01.604Z,21.79
2022-08-26T18:21:30.528Z,21.71
2022-08-26T18:23:58.049Z,21.70
2022-08-26T18:26:28.041Z,21.69
2022-08-26T18:28:55.860Z,21.67
2022-08-26T18:31:23.410Z,21.64
2022-08-26T18:33:51.277Z,21.63
2022-08-26T18:36:19.786Z,21.60
2022-08-26T18:38:50.302Z,21.52
2022-08-26T18:41:19.211Z,21.48
2022-08-26T18:43:46.819Z,21.46
2022-08-26T18:46:14.485Z,21.45
2022-08-26T18:48:42.041Z,21.39
2022-08-26T18:51:12.499Z,21.45
2022-08-26T18:53:41.890Z,21.40
2022-08-26T18:56:11.666Z,21.44
2022-08-26T18:58:39.998Z,21.39
2022-08-26T19:01:07.858Z,21.37
2022-08-26T19:03:35.414Z,21.35
2022-08-26T19:06:02.917Z,21.23
2022-08-26T19:08:30.534Z,21.25
2022-08-26T19:10:58.155Z,21.25
2022-08-26T19:13:27.372Z,21.26
2022-08-26T19:15:55.361Z,21.19
2022-08-26T19:18:22.879Z,21.17
2022-08-26T19:20:50.483Z,21.11
2022-08-26T19:23:31.589Z,21.14
2022-08-26T19:26:00.224Z,21.16
2022-08-26T19:28:29.216Z,21.18
2022-08-26T19:30:56.922Z,21.09
2022-08-26T19:33:24.515Z,21.01
2022-08-26T19:35:52.548Z,20.95
2022-08-26T19:38:20.157Z,20.91
2022-08-26T19:40:47.984Z,20.86
2022-08-26T19:43:15.482Z,20.84
2022-08-26T19:45:45.746Z,20.91
2022-08-26T19:48:13.404Z,20.86
2022-08-26T19:50:42.220Z,20.80
2022-08-26T19:53:10.131Z,20.77
2022-08-26T19:55:37.641Z,20.65
2022-08-26T19:58:07.483Z,20.68
2022-08-26T20:00:36.659Z,20.64
2022-08-26T20:03:05.707Z,20.61
2022-08-26T20:05:33.383Z,20.64
2022-08-26T20:08:01.000Z,20.67
2022-08-26T20:10:28.906Z,20.63
2022-08-26T20:12:56.469Z,20.62
2022-08-26T20:15:24.125Z,20.58
2022-08-26T20:17:52.321Z,20.59
2022-08-26T20:20:38.671Z,20.48
2022-08-26T20:23:06.278Z,20.38
2022-08-26T20:25:34.370Z,20.31
2022-08-26T20:28:02.410Z,20.29
2022-08-26T20:30:30.001Z,20.25
2022-08-26T20:32:57.510Z,20.17
2022-08-26T20:35:26.497Z,20.17
2022-08-26T20:37:54.126Z,20.16
2022-08-26T20:40:22.534Z,20.05
2022-08-26T20:42:50.245Z,20.03
2022-08-26T20:45:17.890Z,20.07
2022-08-26T20:47:45.404Z,19.94
2022-08-26T20:50:12.999Z,19.99
2022-08-26T20:52:41.998Z,19.97
2022-08-26T20:55:10.540Z,19.94
2022-08-26T20:57:38.114Z,19.84
2022-08-26T21:00:06.322Z,19.88
2022-08-26T21:02:33.848Z,19.86
2022-08-26T21:05:01.693Z,19.89
2022-08-26T21:07:30.179Z,19.77
2022-08-26T21:09:59.441Z,19.76
2022-08-26T21:12:26.978Z,19.67
2022-08-26T21:14:54.944Z,19.62
2022-08-26T21:17:22.421Z,19.58
2022-08-26T21:19:49.933Z,19.52
2022-08-26T21:22:17.584Z,19.45
2022-08-26T21:24:45.137Z,19.36
2022-08-26T21:27:14.341Z,19.34
2022-08-26T21:29:49.065Z,19.20
2022-08-26T21:32:19.575Z,19.15
2022-08-26T21:34:47.175Z,18.97
2022-08-26T21:37:16.755Z,18.84
2022-08-26T21:39:44.616Z,18.81
2022-08-26T21:42:12.179Z,18.71
2022-08-26T21:44:41.085Z,18.67
2022-08-26T21:47:08.743Z,18.68
2022-08-26T21:49:36.440Z,18.58
2022-08-26T21:52:04.626Z,18.49
2022-08-26T21:54:32.368Z,18.54
2022-08-26T21:56:59.972Z,18.55
2022-08-26T21:59:27.583Z,18.47
2022-08-26T22:01:57.092Z,18.46
2022-08-26T22:04:24.826Z,18.55
2022-08-26T22:06:53.418Z,18.38
2022-08-26T22:09:23.053Z,18.37
2022-08-26T22:11:51.214Z,18.43
2022-08-26T22:14:20.850Z,18.46
2022-08-26T22:16:50.212Z,18.46
2022-08-26T22:19:20.985Z,18.43
2022-08-26T22:21:52.184Z,18.40
2022-08-26T22:24:21.178Z,18.44
2022-08-26T22:26:49.326Z,18.36
2022-08-26T22:29:17.115Z,18.32
2022-08-26T22:31:44.865Z,18.32
2022-08-26T22:34:15.137Z,18.29
2022-08-26T22:36:45.346Z,18.27
2022-08-26T22:39:13.722Z,18.26
2022-08-26T22:41:41.969Z,18.33
2022-08-26T22:44:10.284Z,18.28
2022-08-26T22:46:38.634Z,18.27
2022-08-26T22:49:08.273Z,18.28
2022-08-26T22:51:35.924Z,18.23
2022-08-26T22:54:04.866Z,18.30
2022-08-26T22:56:32.733Z,18.25
2022-08-26T22:59:00.310Z,18.27
2022-08-26T23:01:28.023Z,18.22
2022-08-26T23:03:55.666Z,18.17
2022-08-26T23:06:23.290Z,18.13
2022-08-26T23:08:50.853Z,18.16
2022-08-26T23:11:19.923Z,18.14
2022-08-26T23:13:47.514Z,18.18
2022-08-26T23:16:15.078Z,18.23
2022-08-26T23:18:42.830Z,18.13
2022-08-26T23:21:10.539Z,18.12
2022-08-26T23:23:38.326Z,18.13
2022-08-26T23:26:06.873Z,18.13
2022-08-26T23:28:35.927Z,18.06
2022-08-26T23:31:03.403Z,18.05
2022-08-26T23:33:44.863Z,18.09
2022-08-26T23:36:17.032Z,18.09
2022-08-26T23:38:45.387Z,18.09
2022-08-26T23:41:20.634Z,18.04
2022-08-26T23:43:49.800Z,18.00
2022-08-26T23:46:17.574Z,17.97
2022-08-26T23:48:45.494Z,18.00
2022-08-26T23:51:30.482Z,18.03
2022-08-26T23:53:58.593Z,18.05
2022-08-26T23:56:26.577Z,18.05
2022-08-26T23:58:56.113Z,18.03
